createdAt,value
2019-01-20T00:01:20.414Z,24.50
2019-01-20T00:03:47.639Z,20.60
2019-01-20T00:06:14.859Z,19.50
2019-01-20T00:08:42.163Z,26.05
2019-01-20T00:11:16.416Z,34.33
2019-01-20T00:13:38.321Z,18.77
2019-01-20T00:16:05.550Z,32.63
2019-01-20T00:18:32.768Z,22.62
2019-01-20T00:21:00.036Z,26.12
2019-01-20T00:23:27.278Z,26.65
2019-01-20T00:25:54.507Z,32.90
2019-01-20T00:28:21.814Z,22.93
2019-01-20T00:30:49.153Z,24.30
2019-01-20T00:33:16.374Z,26.00
2019-01-20T00:35:43.603Z,18.27
2019-01-20T00:38:10.832Z,28.32
2019-01-20T00:40:38.054Z,29.18
2019-01-20T00:43:05.275Z,31.82
2019-01-20T00:45:32.532Z,33.73
2019-01-20T00:47:59.742Z,38.05
2019-01-20T00:50:26.982Z,32.67
2019-01-20T00:52:54.202Z,33.08
2019-01-20T00:55:21.430Z,42.40
2019-01-20T00:57:48.743Z,29.72
2019-01-20T01:00:20.621Z,32.70
2019-01-20T01:02:47.830Z,36.38
2019-01-20T01:05:15.538Z,29.98
2019-01-20T01:07:42.751Z,31.68
2019-01-20T01:10:10.057Z,33.30
2019-01-20T01:12:37.552Z,33.78
2019-01-20T01:15:05.851Z,32.08
2019-01-20T01:17:33.079Z,40.28
2019-01-20T01:20:00.306Z,32.25
2019-01-20T01:22:27.519Z,32.90
2019-01-20T01:24:54.742Z,31.70
2019-01-20T01:27:22.003Z,41.73
2019-01-20T01:29:49.190Z,36.28
2019-01-20T01:32:16.433Z,36.15
2019-01-20T01:34:43.651Z,29.63
2019-01-20T01:37:10.887Z,30.37
2019-01-20T01:39:38.098Z,42.27
2019-01-20T01:42:05.327Z,41.50
2019-01-20T01:44:32.556Z,33.45
2019-01-20T01:46:59.781Z,42.13
2019-01-20T01:49:26.999Z,27.02
2019-01-20T01:51:54.242Z,35.30
2019-01-20T01:54:21.692Z,23.92
2019-01-20T01:56:48.919Z,39.95
2019-01-20T01:59:16.206Z,36.88
2019-01-20T02:01:43.439Z,37.60
2019-01-20T02:04:10.662Z,30.37
2019-01-20T02:06:37.885Z,38.55
2019-01-20T02:09:06.376Z,22.62
2019-01-20T02:11:33.598Z,47.55
2019-01-20T02:14:00.814Z,34.27
2019-01-20T02:16:28.039Z,45.03
2019-01-20T02:18:55.256Z,35.52
2019-01-20T02:21:23.307Z,38.45
2019-01-20T02:23:50.529Z,38.73
2019-01-20T02:26:17.754Z,40.63
2019-01-20T02:28:44.977Z,41.18
2019-01-20T02:31:12.259Z,36.90
2019-01-20T02:33:39.484Z,42.70
2019-01-20T02:36:06.715Z,33.20
2019-01-20T02:38:33.927Z,37.03
2019-01-20T02:41:01.154Z,36.15
2019-01-20T02:43:28.779Z,38.67
2019-01-20T02:45:55.991Z,36.58
2019-01-20T02:48:23.237Z,42.27
2019-01-20T02:50:50.440Z,50.43
2019-01-20T02:53:17.679Z,27.17
2019-01-20T02:55:44.902Z,42.27
2019-01-20T02:58:12.129Z,45.05
2019-01-20T03:00:39.330Z,32.15
2019-01-20T03:03:06.556Z,33.73
2019-01-20T03:05:33.771Z,29.35
2019-01-20T03:08:01.003Z,48.38
2019-01-20T03:10:28.224Z,41.10
2019-01-20T03:12:55.453Z,41.37
2019-01-20T03:15:22.662Z,55.88
2019-01-20T03:17:50.158Z,25.08
2019-01-20T03:20:18.643Z,29.65
2019-01-20T03:22:45.929Z,41.75
2019-01-20T03:25:14.034Z,47.30
2019-01-20T03:27:41.266Z,32.98
2019-01-20T03:30:10.030Z,34.55
2019-01-20T03:32:37.253Z,31.30
2019-01-20T03:35:06.038Z,36.00
2019-01-20T03:37:33.258Z,36.40
2019-01-20T03:40:00.477Z,33.83
2019-01-20T03:42:27.698Z,37.60
2019-01-20T03:44:54.914Z,35.88
2019-01-20T03:47:22.143Z,40.28
2019-01-20T03:49:49.359Z,37.50
2019-01-20T03:52:16.590Z,45.60
2019-01-20T03:54:43.814Z,34.80
2019-01-20T03:57:11.034Z,40.58
2019-01-20T03:59:38.266Z,50.12
2019-01-20T04:02:05.556Z,35.10
2019-01-20T04:04:32.787Z,28.90
2019-01-20T04:07:00.004Z,28.57
2019-01-20T04:09:27.234Z,37.67
2019-01-20T04:11:54.448Z,33.60
2019-01-20T04:14:21.681Z,26.00
2019-01-20T04:16:48.891Z,31.02
2019-01-20T04:19:16.129Z,40.58
2019-01-20T04:21:43.351Z,33.53
2019-01-20T04:24:10.584Z,36.15
2019-01-20T04:26:37.801Z,30.90
2019-01-20T04:29:05.026Z,30.60
2019-01-20T04:31:32.245Z,43.08
2019-01-20T04:33:59.521Z,35.45
2019-01-20T04:36:26.760Z,42.20
2019-01-20T04:38:53.982Z,47.73
2019-01-20T04:41:21.216Z,43.08
2019-01-20T04:43:48.506Z,39.33
2019-01-20T04:46:15.730Z,29.72
2019-01-20T04:48:42.949Z,36.98
2019-01-20T04:51:10.635Z,36.13
2019-01-20T04:53:38.231Z,42.33
2019-01-20T04:56:05.457Z,54.55
2019-01-20T04:58:32.677Z,32.83
2019-01-20T05:00:59.899Z,34.73
2019-01-20T05:03:27.125Z,40.48
2019-01-20T05:05:54.345Z,51.63
2019-01-20T05:08:21.570Z,35.35
2019-01-20T05:10:48.790Z,40.78
2019-01-20T05:13:16.015Z,47.70
2019-01-20T05:15:43.232Z,47.40
2019-01-20T05:18:10.459Z,34.30
2019-01-20T05:20:37.674Z,34.53
2019-01-20T05:23:04.902Z,41.73
2019-01-20T05:25:32.122Z,51.58
2019-01-20T05:27:59.362Z,43.23
2019-01-20T05:30:26.586Z,32.53
2019-01-20T05:32:53.822Z,33.83
2019-01-20T05:35:21.210Z,38.02
2019-01-20T05:37:48.432Z,48.60
2019-01-20T05:40:17.583Z,42.17
2019-01-20T05:42:46.346Z,46.28
2019-01-20T05:45:15.110Z,38.20
2019-01-20T05:47:42.326Z,39.92
2019-01-20T05:50:10.825Z,39.08
2019-01-20T05:52:38.044Z,45.73
2019-01-20T05:55:07.142Z,49.95
2019-01-20T05:57:34.735Z,55.10
2019-01-20T06:00:01.965Z,40.28
2019-01-20T06:02:29.183Z,35.15
2019-01-20T06:04:56.423Z,35.73
2019-01-20T06:07:23.638Z,47.10
2019-01-20T06:09:50.880Z,42.80
2019-01-20T06:12:18.099Z,37.00
2019-01-20T06:14:45.322Z,39.35
2019-01-20T06:17:12.543Z,41.98
2019-01-20T06:19:39.787Z,33.75
2019-01-20T06:22:07.022Z,36.20
2019-01-20T06:24:34.609Z,34.40
2019-01-20T06:27:01.830Z,41.15
2019-01-20T06:29:29.059Z,37.15
2019-01-20T06:31:56.281Z,43.02
2019-01-20T06:34:23.498Z,48.55
2019-01-20T06:36:50.722Z,46.73
2019-01-20T06:39:17.946Z,50.52
2019-01-20T06:41:45.166Z,47.08
2019-01-20T06:44:12.395Z,46.98
2019-01-20T06:46:39.615Z,52.60
2019-01-20T06:49:06.842Z,57.80
2019-01-20T06:51:34.049Z,55.15
2019-01-20T06:54:01.279Z,64.95
2019-01-20T06:56:28.494Z,39.35
2019-01-20T06:58:55.723Z,52.83
2019-01-20T07:01:22.959Z,51.00
2019-01-20T07:03:50.182Z,85.40
2019-01-20T07:06:17.406Z,75.87
2019-01-20T07:08:44.629Z,60.08
2019-01-20T07:11:11.847Z,83.65
2019-01-20T07:13:39.085Z,59.05
2019-01-20T07:16:06.307Z,52.65
2019-01-20T07:18:33.524Z,52.13
2019-01-20T07:21:00.782Z,54.42
2019-01-20T07:23:27.998Z,50.75
2019-01-20T07:25:55.230Z,46.35
2019-01-20T07:28:22.442Z,45.58
2019-01-20T07:30:49.671Z,50.88
2019-01-20T07:33:16.895Z,49.13
2019-01-20T07:35:44.118Z,45.38
2019-01-20T07:38:11.334Z,39.85
2019-01-20T07:40:38.571Z,43.48
2019-01-20T07:43:05.786Z,40.45
2019-01-20T07:45:33.014Z,30.70
2019-01-20T07:48:00.227Z,40.63
2019-01-20T07:50:27.454Z,34.40
2019-01-20T07:52:54.674Z,35.98
2019-01-20T07:55:21.903Z,30.45
2019-01-20T07:57:49.290Z,35.28
2019-01-20T08:00:23.258Z,44.63
2019-01-20T08:02:50.485Z,35.68
2019-01-20T08:05:17.710Z,35.43
2019-01-20T08:07:44.927Z,43.17
2019-01-20T08:10:19.422Z,40.15
2019-01-20T08:12:46.642Z,48.80
2019-01-20T08:15:14.738Z,39.92
2019-01-20T08:17:42.030Z,55.05
2019-01-20T08:20:10.791Z,39.48
2019-01-20T08:22:38.018Z,33.88
2019-01-20T08:25:06.978Z,32.83
2019-01-20T08:27:34.203Z,51.73
2019-01-20T08:30:01.479Z,48.13
2019-01-20T08:32:28.711Z,56.85
2019-01-20T08:34:55.940Z,43.25
2019-01-20T08:37:28.827Z,40.95
2019-01-20T08:39:52.101Z,49.40
2019-01-20T08:42:19.326Z,44.93
2019-01-20T08:44:46.542Z,41.60
2019-01-20T08:47:14.960Z,44.53
2019-01-20T08:49:42.191Z,40.23
2019-01-20T08:52:09.386Z,49.30
2019-01-20T08:54:36.659Z,38.88
2019-01-20T08:57:03.878Z,50.85
2019-01-20T08:59:31.102Z,51.65
2019-01-20T09:01:58.328Z,51.23
2019-01-20T09:04:25.557Z,48.17
2019-01-20T09:06:52.793Z,58.25
2019-01-20T09:09:20.042Z,70.95
2019-01-20T09:11:47.267Z,62.27
2019-01-20T09:14:14.500Z,78.20
2019-01-20T09:16:41.731Z,58.02
2019-01-20T09:19:08.958Z,54.65
2019-01-20T09:21:36.199Z,45.23
2019-01-20T09:24:03.502Z,52.60
2019-01-20T09:26:30.721Z,43.70
2019-01-20T09:28:57.947Z,41.53
2019-01-20T09:31:25.166Z,58.75
2019-01-20T09:33:52.398Z,50.50
2019-01-20T09:36:19.627Z,47.70
2019-01-20T09:38:46.854Z,46.08
2019-01-20T09:41:14.079Z,39.73
2019-01-20T09:43:47.098Z,53.08
2019-01-20T09:46:10.467Z,57.43
2019-01-20T09:48:37.879Z,49.58
2019-01-20T09:51:05.659Z,57.35
2019-01-20T09:53:32.892Z,51.05
2019-01-20T09:56:00.110Z,36.33
2019-01-20T09:58:27.338Z,51.88
2019-01-20T10:00:54.639Z,46.92
2019-01-20T10:03:21.877Z,54.03
2019-01-20T10:05:49.104Z,42.38
2019-01-20T10:08:16.339Z,53.35
2019-01-20T10:10:43.650Z,44.53
2019-01-20T10:13:10.890Z,58.58
2019-01-20T10:15:38.105Z,59.05
2019-01-20T10:18:05.416Z,56.45
2019-01-20T10:20:33.017Z,46.68
2019-01-20T10:23:00.666Z,50.70
2019-01-20T10:25:27.930Z,49.93
2019-01-20T10:27:55.238Z,53.33
2019-01-20T10:30:24.008Z,55.98
2019-01-20T10:32:51.231Z,54.75
2019-01-20T10:35:20.093Z,42.35
2019-01-20T10:37:47.487Z,46.68
2019-01-20T10:40:14.711Z,52.17
2019-01-20T10:42:41.939Z,51.28
2019-01-20T10:45:10.145Z,49.98
2019-01-20T10:47:37.366Z,76.40
2019-01-20T10:50:06.122Z,47.95
2019-01-20T10:52:33.356Z,72.15
2019-01-20T10:55:00.573Z,54.40
2019-01-20T10:57:27.798Z,54.53
2019-01-20T10:59:55.020Z,60.90
2019-01-20T11:02:22.242Z,49.85
2019-01-20T11:04:49.467Z,56.50
2019-01-20T11:07:16.686Z,41.05
2019-01-20T11:09:43.923Z,51.48
2019-01-20T11:12:11.211Z,52.27
2019-01-20T11:14:38.435Z,46.73
2019-01-20T11:17:05.659Z,52.83
2019-01-20T11:19:32.887Z,47.85
2019-01-20T11:22:00.103Z,49.75
2019-01-20T11:24:27.326Z,47.67
2019-01-20T11:26:54.547Z,49.93
2019-01-20T11:29:21.770Z,48.13
2019-01-20T11:31:48.986Z,47.38
2019-01-20T11:34:16.290Z,52.70
2019-01-20T11:36:43.511Z,43.28
2019-01-20T11:39:10.743Z,45.40
2019-01-20T11:41:37.958Z,50.30
2019-01-20T11:44:05.466Z,45.60
2019-01-20T11:46:32.704Z,52.45
2019-01-20T11:49:00.011Z,60.78
2019-01-20T11:51:27.234Z,48.98
2019-01-20T11:53:54.462Z,51.13
2019-01-20T11:56:21.682Z,49.70
2019-01-20T11:58:48.907Z,53.70
2019-01-20T12:01:16.131Z,48.52
2019-01-20T12:03:43.390Z,47.38
2019-01-20T12:06:10.623Z,57.83
2019-01-20T12:08:37.850Z,54.53
2019-01-20T12:11:05.076Z,37.90
2019-01-20T12:13:32.573Z,58.30
2019-01-20T12:15:59.803Z,48.08
2019-01-20T12:18:27.059Z,57.38
2019-01-20T12:20:54.282Z,45.17
2019-01-20T12:23:21.506Z,49.50
2019-01-20T12:25:48.731Z,44.48
2019-01-20T12:28:15.964Z,46.95
2019-01-20T12:30:43.183Z,70.40
2019-01-20T12:33:11.479Z,61.05
2019-01-20T12:35:38.709Z,35.52
2019-01-20T12:38:05.930Z,49.85
2019-01-20T12:40:40.797Z,46.10
2019-01-20T12:43:08.035Z,42.40
2019-01-20T12:45:35.251Z,50.90
2019-01-20T12:48:02.550Z,53.45
2019-01-20T12:50:29.892Z,48.85
2019-01-20T12:52:57.161Z,52.25
2019-01-20T12:55:24.389Z,61.70
2019-01-20T12:57:51.606Z,47.00
2019-01-20T13:00:19.503Z,49.45
2019-01-20T13:02:46.813Z,65.72
2019-01-20T13:05:14.111Z,49.05
2019-01-20T13:07:41.343Z,49.05
2019-01-20T13:10:09.941Z,62.85
2019-01-20T13:12:40.363Z,52.53
2019-01-20T13:15:09.131Z,70.15
2019-01-20T13:17:36.375Z,56.92
2019-01-20T13:20:05.283Z,48.48
2019-01-20T13:22:32.504Z,53.15
2019-01-20T13:24:59.734Z,43.95
2019-01-20T13:27:26.954Z,48.30
2019-01-20T13:29:54.179Z,48.50
2019-01-20T13:32:21.400Z,46.00
2019-01-20T13:40:25.178Z,36.05
2019-01-20T13:42:52.399Z,42.55
2019-01-20T13:45:21.227Z,34.25
2019-01-20T13:49:14.200Z,44.15
2019-01-20T13:51:50.704Z,44.65
2019-01-20T13:54:16.457Z,48.55
2019-01-20T13:56:43.679Z,38.73
2019-01-20T13:59:10.914Z,38.20
2019-01-20T14:01:38.135Z,40.03
2019-01-20T14:04:05.367Z,45.28
2019-01-20T14:06:32.959Z,41.50
2019-01-20T14:09:00.191Z,44.23
2019-01-20T14:11:27.483Z,43.25
2019-01-20T14:13:54.710Z,59.42
2019-01-20T14:16:21.946Z,49.35
2019-01-20T14:18:49.167Z,41.15
2019-01-20T14:21:16.386Z,37.75
2019-01-20T14:23:43.606Z,40.85
2019-01-20T14:26:10.838Z,39.05
2019-01-20T14:28:38.055Z,49.70
2019-01-20T14:31:05.285Z,38.13
2019-01-20T14:33:32.494Z,43.02
2019-01-20T14:35:59.719Z,37.25
2019-01-20T14:38:26.939Z,48.55
2019-01-20T14:40:54.162Z,48.42
2019-01-20T14:43:21.382Z,41.25
2019-01-20T14:45:48.610Z,50.00
2019-01-20T14:48:15.826Z,40.08
2019-01-20T14:50:43.054Z,36.15
2019-01-20T14:53:10.265Z,40.58
2019-01-20T14:55:37.500Z,41.05
2019-01-20T14:58:04.786Z,44.30
2019-01-20T15:00:33.561Z,44.38
2019-01-20T15:03:00.859Z,45.15
2019-01-20T15:05:28.093Z,39.83
2019-01-20T15:07:55.312Z,51.85
2019-01-20T15:10:22.538Z,62.90
2019-01-20T15:12:50.366Z,52.13
2019-01-20T15:15:25.029Z,38.67
2019-01-20T15:17:52.243Z,45.92
2019-01-20T15:20:19.478Z,45.85
2019-01-20T15:22:46.691Z,50.10
2019-01-20T15:25:15.186Z,50.08
2019-01-20T15:27:42.406Z,50.28
2019-01-20T15:30:14.407Z,50.12
2019-01-20T15:32:41.654Z,44.90
2019-01-20T15:35:08.878Z,49.75
2019-01-20T15:37:36.103Z,43.38
2019-01-20T15:40:04.558Z,49.35
2019-01-20T15:42:31.788Z,40.23
2019-01-20T15:44:59.007Z,51.13
2019-01-20T15:47:26.234Z,52.30
2019-01-20T15:49:53.866Z,50.92
2019-01-20T15:52:21.095Z,49.33
2019-01-20T15:54:48.318Z,48.05
2019-01-20T15:57:15.538Z,42.88
2019-01-20T15:59:42.773Z,39.05
2019-01-20T16:02:09.987Z,49.83
2019-01-20T16:04:37.219Z,60.00
2019-01-20T16:07:04.441Z,40.12
2019-01-20T16:09:31.687Z,53.90
2019-01-20T16:11:58.923Z,51.68
2019-01-20T16:14:26.145Z,48.80
2019-01-20T16:16:53.362Z,73.37
2019-01-20T16:19:20.585Z,70.60
2019-01-20T16:21:47.820Z,74.30
2019-01-20T16:24:15.065Z,57.65
2019-01-20T16:26:42.760Z,50.00
2019-01-20T16:29:09.974Z,54.25
2019-01-20T16:31:39.923Z,60.92
2019-01-20T16:34:06.170Z,57.93
2019-01-20T16:36:33.399Z,62.98
2019-01-20T16:39:00.614Z,55.58
2019-01-20T16:41:27.840Z,56.18
2019-01-20T16:43:55.059Z,45.40
2019-01-20T16:46:22.281Z,45.85
2019-01-20T16:48:49.498Z,54.33
2019-01-20T16:51:16.726Z,52.15
2019-01-20T16:53:43.946Z,51.85
2019-01-20T16:56:11.174Z,49.55
2019-01-20T16:58:38.390Z,54.33
2019-01-20T17:01:05.683Z,48.30
2019-01-20T17:03:32.906Z,54.70
2019-01-20T17:06:00.134Z,53.85
2019-01-20T17:08:27.367Z,54.60
2019-01-20T17:10:54.603Z,52.55
2019-01-20T17:13:21.883Z,46.50
2019-01-20T17:15:49.103Z,47.58
2019-01-20T17:18:16.490Z,59.13
2019-01-20T17:20:43.796Z,58.65
2019-01-20T17:23:11.022Z,46.40
2019-01-20T17:25:38.248Z,57.33
2019-01-20T17:28:05.540Z,64.37
2019-01-20T17:30:34.186Z,50.73
2019-01-20T17:33:01.781Z,52.50
2019-01-20T17:35:29.010Z,63.38
2019-01-20T17:37:56.260Z,61.37
2019-01-20T17:40:27.638Z,41.60
2019-01-20T17:42:55.249Z,52.10
2019-01-20T17:45:23.651Z,50.40
2019-01-20T17:47:50.862Z,52.78
2019-01-20T17:50:22.566Z,67.80
2019-01-20T17:52:49.792Z,61.48
2019-01-20T17:55:17.095Z,61.13
2019-01-20T17:57:44.323Z,63.25
2019-01-20T18:00:13.091Z,46.63
2019-01-20T18:02:40.337Z,46.83
2019-01-20T18:05:09.090Z,56.50
2019-01-20T18:07:36.319Z,59.38
2019-01-20T18:10:05.839Z,58.02
2019-01-20T18:12:33.325Z,55.67
2019-01-20T18:15:00.548Z,60.05
2019-01-20T18:17:27.779Z,44.60
2019-01-20T18:19:55.003Z,56.35
2019-01-20T18:22:22.223Z,62.78
2019-01-20T18:24:49.490Z,47.20
2019-01-20T18:27:16.718Z,58.52
2019-01-20T18:29:43.947Z,72.97
2019-01-20T18:32:11.174Z,59.53
2019-01-20T18:34:38.420Z,53.02
2019-01-20T18:37:05.641Z,60.43
2019-01-20T18:39:32.862Z,66.40
2019-01-20T18:42:00.103Z,59.33
2019-01-20T18:44:27.322Z,47.20
2019-01-20T18:46:54.779Z,62.75
2019-01-20T18:49:22.006Z,55.78
2019-01-20T18:51:49.231Z,45.52
2019-01-20T18:54:16.463Z,60.85
2019-01-20T18:56:43.679Z,52.62
2019-01-20T18:59:10.910Z,65.08
2019-01-20T19:01:38.182Z,52.35
2019-01-20T19:04:05.419Z,59.65
2019-01-20T19:06:32.643Z,55.03
2019-01-20T19:08:59.866Z,64.03
2019-01-20T19:11:27.121Z,47.35
2019-01-20T19:13:54.346Z,60.63
2019-01-20T19:16:21.567Z,62.25
2019-01-20T19:18:48.811Z,51.58
2019-01-20T19:21:16.016Z,54.63
2019-01-20T19:23:43.256Z,50.75
2019-01-20T19:26:10.479Z,61.65
2019-01-20T19:28:37.710Z,52.08
2019-01-20T19:31:04.935Z,49.75
2019-01-20T19:33:32.162Z,60.85
2019-01-20T19:35:59.390Z,53.70
2019-01-20T19:38:26.617Z,51.35
2019-01-20T19:40:53.927Z,52.30
2019-01-20T19:43:21.147Z,64.65
2019-01-20T19:45:48.362Z,63.98
2019-01-20T19:48:20.024Z,61.55
2019-01-20T19:50:44.546Z,54.15
2019-01-20T19:53:11.771Z,58.42
2019-01-20T19:55:39.002Z,55.65
2019-01-20T19:58:06.217Z,61.80
2019-01-20T20:00:33.451Z,48.87
2019-01-20T20:03:00.762Z,52.43
2019-01-20T20:05:28.054Z,67.00
2019-01-20T20:07:55.848Z,59.90
2019-01-20T20:10:24.138Z,46.23
2019-01-20T20:12:51.535Z,59.48
2019-01-20T20:15:19.837Z,67.70
2019-01-20T20:17:47.198Z,63.48
2019-01-20T20:20:15.601Z,53.85
2019-01-20T20:22:42.850Z,56.18
2019-01-20T20:25:11.403Z,63.33
2019-01-20T20:27:38.615Z,64.60
2019-01-20T20:30:07.378Z,64.77
2019-01-20T20:32:34.594Z,48.28
2019-01-20T20:35:01.822Z,61.60
2019-01-20T20:37:29.058Z,53.00
2019-01-20T20:39:56.295Z,54.03
2019-01-20T20:42:23.517Z,65.72
2019-01-20T20:44:50.763Z,60.65
2019-01-20T20:47:17.983Z,54.58
2019-01-20T20:49:45.234Z,56.00
2019-01-20T20:52:12.474Z,59.58
2019-01-20T20:54:39.699Z,52.17
2019-01-20T20:57:06.924Z,54.70
2019-01-20T20:59:34.207Z,92.55
2019-01-20T21:02:01.426Z,77.20
2019-01-20T21:04:28.692Z,62.85
2019-01-20T21:06:55.969Z,58.65
2019-01-20T21:09:23.178Z,65.72
2019-01-20T21:11:50.402Z,56.92
2019-01-20T21:14:17.622Z,65.60
2019-01-20T21:16:44.880Z,66.62
2019-01-20T21:19:12.090Z,49.53
2019-01-20T21:21:39.371Z,61.45
2019-01-20T21:24:06.604Z,55.90
2019-01-20T21:26:33.840Z,61.95
2019-01-20T21:29:01.061Z,56.45
2019-01-20T21:31:28.282Z,54.05
2019-01-20T21:33:55.498Z,62.67
2019-01-20T21:36:22.726Z,54.63
2019-01-20T21:38:49.945Z,71.80
2019-01-20T21:41:17.173Z,59.23
2019-01-20T21:43:44.391Z,67.00
2019-01-20T21:46:11.619Z,60.45
2019-01-20T21:48:38.839Z,51.55
2019-01-20T21:51:06.066Z,71.55
2019-01-20T21:53:33.289Z,62.10
2019-01-20T21:56:00.518Z,64.75
2019-01-20T21:58:27.738Z,59.42
2019-01-20T22:00:54.973Z,63.30
2019-01-20T22:03:22.293Z,67.30
2019-01-20T22:05:49.587Z,73.80
2019-01-20T22:08:16.878Z,58.17
2019-01-20T22:10:44.139Z,54.80
2019-01-20T22:13:11.383Z,62.73
2019-01-20T22:15:38.611Z,60.08
2019-01-20T22:18:05.830Z,49.50
2019-01-20T22:20:33.063Z,69.65
2019-01-20T22:23:00.303Z,52.50
2019-01-20T22:25:27.528Z,59.65
2019-01-20T22:27:54.791Z,66.00
2019-01-20T22:30:23.199Z,66.65
2019-01-20T22:32:50.415Z,63.45
2019-01-20T22:35:17.638Z,64.70
2019-01-20T22:37:44.875Z,61.35
2019-01-20T22:40:13.483Z,58.75
2019-01-20T22:42:40.766Z,59.45
2019-01-20T22:45:09.572Z,62.55
2019-01-20T22:47:36.787Z,50.70
2019-01-20T22:50:05.782Z,68.62
2019-01-20T22:52:33.023Z,57.98
2019-01-20T22:55:00.257Z,65.17
2019-01-20T22:57:27.463Z,49.50
2019-01-20T22:59:54.698Z,60.30
2019-01-20T23:02:21.941Z,70.75
2019-01-20T23:04:49.162Z,64.30
2019-01-20T23:07:16.434Z,55.30
2019-01-20T23:09:43.679Z,75.92
2019-01-20T23:12:10.915Z,82.57
2019-01-20T23:14:38.131Z,66.37
2019-01-20T23:17:07.943Z,53.60
2019-01-20T23:19:34.314Z,46.02
2019-01-20T23:22:01.644Z,60.92
2019-01-20T23:24:28.867Z,60.48
2019-01-20T23:26:56.136Z,57.38
2019-01-20T23:29:23.403Z,62.80
2019-01-20T23:31:50.626Z,60.85
2019-01-20T23:34:17.859Z,61.80
2019-01-20T23:36:45.094Z,50.80
2019-01-20T23:39:12.509Z,55.85
2019-01-20T23:41:39.784Z,65.47
2019-01-20T23:44:06.999Z,60.73
2019-01-20T23:46:34.227Z,51.85
2019-01-20T23:49:01.446Z,75.17
2019-01-20T23:51:28.677Z,61.55
2019-01-20T23:53:55.887Z,56.85
2019-01-20T23:56:23.136Z,62.75
2019-01-20T23:58:50.374Z,57.93
